estenglv
WAP version
Login form
RSS
SEB Tallinna Maratonil osalenud saavad alla laadida jooksuvideo 17.09.2014 (0)
Kõigil, kes osalesid sel pühapäeval toimunud SEB Tallinna Maratoni 10 kilomeetri ajavõtuga, poolmaratoni või maratoni distantsil, on nüüd võimalik alla laadida oma jooksu videokokkuvõte. ...
SEB Tallinna Maratoni 10 kilomeetri jooksu võitis Tiidrek Nurme 15.09.2014 (0)
SEB Tallinna Maratoni 10 kilomeetri jooksu võitis Tiidrek Nurme
Pühapäeval, 14. septembril Tallinna kesklinnas toimunud SEB Tallinna Maratoni 10 kilomeetri distantsil võttis oma kuuenda ...
SEB Tallinna Maratoni poolmaratoni võitis Jacob Yator 15.09.2014 (0)
SEB Tallinna Maratonil tehti Guinnessi rekord 15.09.2014 (0)
SEB Tallinna Maratoni võit läks teist aastat järjest 15.09.2014 (0)
SEB Tallinna Maratonil osalejad saavad jooksust isikliku video 11.09.2014 (0)
Selver Linnajooksude sarja üldvõitja tiitlile käib rebimine 08.09.2014 (0)
Baltimaade suurim jooksupidu toob kokku osalejaid igast maailmanurgast 04.09.2014 (0)
42,2 km
21,1 km
10 km
301 Moved Permanently Date: Fri, 17 Nov 2017 03:00:01 GMT Server: Apache / ZoneOS Location: https://www.ilm.ee/~data/include/ilm.php3 Content-Length: 318 Keep-Alive: timeout=3, max=100 Connection: Keep-Alive Content-Type: text/html; charset=iso-8859-1 301 Moved Permanently

Moved Permanently

The document has moved here.


Apache / ZoneOS Server at www.ilm.ee Port 80
SEB Tallinna Maraton (13-14.9.2014)
Aeg 14.09.2014
Koht Tallinn EST
Spordiala Jooksmine
Distants 42,195 m
21,097 m
10 km
Korraldaja Spordiürituste Korraldamise Klubi, +372 6548 462, www.jooks.ee, jooks@jooks.ee
TULEMUSED
Nimi: Vanuseklass:
Text Xml Excel print
Koht N koht Nr Nimi Võistkond  Aeg Netoaeg Koht v.k.  
1   1 Beyene Dadi Tesfaye 2:17:29 2:17:29 1
2   3 Nikolajev Ilja SK Jooksupartner 2:21:34 2:21:34 2
3   34 Vaine Heinar VAK Staier 2:23:36 2:23:36 1
4   8 Tserepannikov Sergei Stamina Arcotransport jooksutiim 2:24:02 2:24:02 3
5   4 Sasmin Kaupo Sparta SS 2:24:05 2:24:05 4
6   2 Wachira Ibrahim Mukunga 2:25:18 2:25:18 5
7   27 Ivanov Ivar Võru KJK Lõunalõvi 2:31:39 2:31:39 6
8   63 Jõesoo Argo Sportkeskus.ee 2:32:16 2:32:16 7
9   21 Lein Andrus Rakvere KJK ViKe 2:32:20 2:32:20 1
10   18 Puustus Anti KJS Sakala 2:32:28 2:32:28 8
11   19 Reinsalu Kristo Stamina SK 2:33:02 2:33:02 9
12   12 Paap Hasso TÜASK 2:33:15 2:33:15 10
13   6 Ngeno Peter 2:33:21 2:33:21 11
14   2166 Bubnov Ivan A2K Spordiklubi 2:35:23 2:35:22 12
15   36 Markov Alexey TÜASK 2:39:44 2:39:44 13
16   10 Lehismets Priit Stamina 2:40:26 2:40:26 14
17   30 Piip Kaarel Täppsportlased 2:41:31 2:41:30 15
18   262 Õisnurm Kalev 2:41:51 2:41:49 2
19   83 Laur Mikk KJK Lõunalõvi 2:42:32 2:42:31 16
20   148 Nilovs Valdis SK Ozolnieki 2:42:45 2:42:44 17
21   160 Kallaste Jaanus Stamina 2:43:48 2:43:48 18
22   20 Ilumäe Indrek 2:43:48 2:43:47 19
23   101 Veilberg Ago Tamsalu 2:44:23 2:44:21 1
24   28 Tamm Martin Rapla JK 2:46:11 2:46:09 20
25   31 Nõmm Marek SK JOOKSUPARTNER 2:46:54 2:46:54 21
26   40 Rammo Matt Sparta SS 2:47:00 2:46:59 22
27   55 Hannus Sander 2:47:03 2:47:03 23
28   2099 Cimermanis Oskars Riga Ironman Team 2:47:31 2:47:03 24
29   169 Ots Indrek 2:49:10 2:49:08 25
30   388 Cherniaev Anton "sk ""Start""" 2:49:30 2:49:21 26
31   37 Tubilis Taavi Audentese SK 2:49:34 2:49:33 27
32   158 Slavickas Andrius Kauno maratono klubas 2:49:50 2:49:46 28
33   44 Reinart Hardo TÜASK 2:50:10 2:50:10 29
34   43 Tippi Bert TÜASK 2:51:47 2:51:47 30
35   1346 Vänttinen Simo 2:52:18 2:52:15 3
36   2125 Hang Tauno 2:53:44 2:53:43 31
37   39 Kajari Priit Sparta SS 2:54:34 2:54:31 1
38   1330 Watson Alistair Serpentine 2:54:40 2:54:31 32
39   738 Pedak Jaanus 2:54:48 2:54:45 2
40   455 Zimmermann Mario SWV Goldlauter 2:54:49 2:54:46 33
41   2205 Linkov Steven 2:55:20 2:55:18 34
42   437 Poll Cris Estonian Ultrarunners Team 2:55:44 2:55:38 35
43   1402 Križinauskas Justinas SK Lukas 2:55:59 2:55:54 36
44   877 Mattila Teuvo Akaarunner team 2:56:00 2:55:51 4
45   26 Tamme Tarvo Läänemaa KJK 2:56:08 2:56:08 37
46   1433 Nikolaev Sergei 2:56:12 2:56:02 5
47   442 Ahonen Pasi Run or Shit! 2:56:19 2:56:12 38
48   468 Valdmaa Lauri 2:56:21 2:56:14 39
49 1 13 Talts Evelin 2:56:26 2:56:26 1
50   62 Anton Arvi 2:56:28 2:56:28 2
51   35 Enno Kristjan Täppsportlased 2:56:34 2:56:34 6
52   140 Ridamäe Alar Sparta 2:56:41 2:56:41 7
53   395 Westling Ilkka 2:57:04 2:56:55 40
54   97 Kindel Hanno Täppsportlased 2:57:23 2:57:22 3
55   125 Enok Marek 2:57:27 2:57:25 41
56   474 Lunttila Timo Saarijärven Pullistus 2:57:57 2:57:54 42
57   88 Mäeots Jannes 2:58:15 2:58:14 43
58   87 Sagaja Martin Eesti Raudtee SK 2:58:18 2:58:17 44
59   231 Vinogradov Yuriy SKA 2:58:32 2:58:15 45
60   100 Kukk Kaspar SK Keremeister 2:58:47 2:58:45 46
61 2 115 Teppo Anu Sparta 2:58:58 2:58:56 2
62   145 Körhämö Jani Luopioisten maratoonarit 2:59:00 2:58:56 47
63   2020 Orasmaa Mikk 2:59:09 2:58:33 48
64 3 15 Kukk Kaisa SPARTA 2:59:10 2:59:08 3
65   1844 Kaiv Taavi 2:59:18 2:59:16 49
66   281 Egorov Dmitriy 2:59:19 2:59:17 50
67   90 Simson Priit 2:59:26 2:59:26 51
68   146 Fikrle Ondrej BKV Holysov 2:59:28 2:59:24 8
69   103 Sisask Valmar 2:59:30 2:59:27 52
70   2106 Saluveer Joona Omniva Spordiklubi 2:59:40 2:59:37 53
71   139 Punavaara Marko Heinola 2:59:50 2:59:48 4
72   114 Maiste Tarmo 2:59:55 2:59:51 54
73   71 Kuhi Rainer 2:59:57 2:59:54 55
74   136 Raspel Raido SPARTA 2:59:58 2:59:56 5
75   75 Pirksaar Margus Tempomeister 3:00 3:00:00 2:59:59 9
76   138 Väisänen Mikael IFK Skövde 3:00:01 2:59:58 2
77   1935 Ojaots Aigar 3:00:05 3:00:00 10
78   235 Reivelt Kalvi 3:00:16 3:00:14 11
79   1965 Gromov Viktor Champion 3:00:58 3:00:51 1
80   185 Štulbergs Gatis 3:01:51 3:01:49 3
81   285 Vainer Miiko MTA SK 3:01:56 3:01:53 56
82   25 Jaaska Allan-Peeter Stamina SK 3:02:30 3:02:29 12
83   829 Valter Marko SK JOOKSUPARTNER 3:02:35 3:02:23 57
84   91 Palm Mart 3:03:11 3:03:09 58
85   123 Punkka Veikko Tampereen Maratonklubi 3:03:19 3:03:15 6
86   2252 Mänd Rait Elioni Spordiklubi 3:03:29 3:03:27 59
87   876 Hakala Jere Akaa Runner Team 3:03:42 3:03:33 13
88   69 Roomet Reget Doberani Rannamasa 3:03:43 3:03:43 60
89   33 Torim Enno VAK Staier 3:03:56 3:03:55 14
90   99 Naumanen Urpo Tampereen Maratonklubi 3:04:21 3:04:18 1
91   133 Raudsaar Taavi Eesti Panga Spordiklubi 3:04:33 3:04:29 61
92   211 Liht Sulev 3:04:56 3:04:55 3
93   847 Picut Arnaud 3:04:58 3:04:45 7
94   118 Siht Jüri VAK-Staier 3:05:02 3:05:00 4
95   190 Leemet Mait SPARTA 3:05:08 3:05:08 62
96   1877 Kokorko Dmitry 3:05:10 3:05:04 5
97   296 Zhokhov Nikita 3:05:21 3:05:15 63
98   201 Kaasalainen Antti 3:05:30 3:05:27 64
99   135 Mets Madis 3:05:47 3:05:45 65
100   2102 Loodsalu Lauri 3:05:50 3:05:04 66
101   1839 Afanasev Viktor krasnogvardeec 3:05:52 3:05:16 6
102   107 Pähn Janar vak staier 3:06:11 3:06:05 67
103   134 Lajeunesse Quentin 3:06:19 3:06:14 68
104   153 Säkk Janar 3:07:03 3:06:57 69
105   127 Ülem Risto 3:07:19 3:07:14 4
106   457 Tiikoja Heiki 3:07:27 3:07:20 70
107   93 Snitsarenko Tarass Eesti Panga SK 3:07:27 3:07:26 71
108   321 Wicki Patrick 3:07:41 3:07:31 72
109 4 45 Verevmägi Kristiina Täppsportlased 3:07:48 3:07:46 4
110   1845 Muru Mehis 3:08:09 3:08:07 73
111   2195 Salinin Anton KJK Kalev Sillmae 3:08:15 3:08:14 5
112   2239 Tarvainen Kari 3:08:15 3:08:13 74
113   441 Kieliger Matthias 3:08:16 3:08:10 15
114   1465 Niemi Aki Luopioisten maratoonarit 3:08:24 3:08:21 75
115   755 Malsroos Lauri SK Saue Tammed 3:08:25 3:08:11 76
116   57 Bakhoff Tamor VAK Staier / Pärnu Sõudeklubi 3:08:25 3:08:23 77
117   1560 Donner Kristoffer ESBO IF 3:08:57 3:08:44 78
118   109 Toplaan Anti 3:09:00 3:08:56 8
119   152 Talu Priit Eesti Energia Spordiklubi 3:09:03 3:08:57 16
120 5 2184 Lükk Merlyn 3:09:04 3:09:01 5
121   1955 Laur Toomas 3:09:05 3:08:50 7
122 6 108 Vaher Annika JK Sarma 3:09:11 3:09:08 1
123   222 Joonas Peep 3:09:30 3:09:25 9
124 7 498 Bunting Rebecca London Heathside Running Club 3:09:44 3:09:40 6
125   261 Linden Mikael TREMK 3:09:44 3:09:38 17
126   810 Rähn Alar SK Metsasõbrad 3:09:52 3:09:48 79
127   2086 Jokinen Timo Luopioinen 3:09:57 3:09:18 8
128   177 Mailend Ants 3:10:04 3:10:00 18
129   888 Käärd Janek Elujooks 3:10:13 3:09:59 80
130   298 Solmula Risto 3:10:19 3:10:13 9
131   1100 Kuleshov Aleksandr Dresseur MTÜ 3:10:22 3:09:41 81
132   137 Varaine Richard AVOC 3:10:39 3:10:37 10
133   1841 Annilo Mihkel 3:11:10 3:11:08 6
134   1948 Leinonen Pekka 3:11:16 3:10:53 19
135   1830 Vafin Renat 3:11:16 3:11:13 20
136   124 Orgulas Kaido 3:11:34 3:11:31 11
137   2213 Tops Reinis 3:11:53 3:11:18 82
138   475 Holma Harri Nokia marathon team 3:12:05 3:12:00 21
139   389 Aru Gertis 3:12:07 3:12:01 83
140   1911 Vallner David TriSmile 3:12:29 3:12:26 84
141   269 Mererand Rait 3:12:42 3:12:39 85
142   283 Piirsalu Meelis 3:12:44 3:12:41 22
143   117 Kuningas Andres 3:12:46 3:12:42 23
144   143 Männik Ahti 3:12:47 3:12:41 86
145   429 Gunnarsson Christian 3:12:47 3:12:40 87
146   113 Tomp Ahti 3:13:00 3:12:53 88
147   346 Pajuste Jüri Tamsalu AO SUKL 3:13:03 3:12:56 89
148   1035 Burchardt Peter Hvals Lbeklub 3:13:08 3:12:54 12
149   2094 Hõbe Tarmo 3:13:10 3:13:08 90
150   164 Lempiäinen Timo 3:13:11 3:13:04 13
151   335 Palu Tiit 3:13:16 3:13:09 24
152   1564 Juuti Petri Tampereen Maratonklubi 3:13:16 3:12:52 14
153   464 Veeroos Erki 3:13:17 3:13:09 91
154 8 477 Boikov Mari Estonian Ultrarunners Team 3:13:20 3:13:13 7
155   843 Kimask Eduard SK JOOKSUPARTNER 3:13:21 3:13:16 25
156   178 Drulia Mantas KAUNO MARATONO KLUBAS 3:13:32 3:13:28 92
157   141 Treimuth Meelis Haanja Rattaklubi 3:13:34 3:13:32 15
158   142 Enn Lauri 3:13:35 3:13:31 93
159   120 Smalovijs Nikolajs LSC 3:13:35 3:13:31 1
160   230 Sormunen Raivo 3:13:42 - 94
161   845 Siimer Martin LiVal 3:13:45 3:13:34 26
162   693 Raavel Martti Järvakandi Wellod 3:13:51 3:13:35 27
163   1763 Petristsev Vitali 3:13:51 3:11:54 95
164   2048 Pedaste Margus Tartu Inline Team 3:14:05 3:13:26 96
165 9 217 Tross Tiina Täppsportlased 3:14:07 3:14:05 1
166   2010 Luoma Juho EURun Finland 3:14:10 3:13:30 7
167   194 Rouhijainen Madis Team Ronhill 3:14:12 3:14:08 97
168   226 Nagel Rainer Kulgur Team 3:14:12 3:14:08 98
169   202 Kivaste Pärt 3:14:14 3:14:10 99
170   221 Kaasik Kennet 3:14:16 3:14:12 8
171   181 Podoliaka Ivan 3:14:17 3:14:12 100
172   588 Niemi Janne 3:14:18 3:14:06 28
173   155 Sillamaa Steven 3:14:18 3:14:12 9
174   396 Salmin Roman PenzaMarathon 3:14:19 3:14:12 101
175   151 Liin Urmas TÜASK Fitnessklubi 3:14:21 3:14:16 102
176   1881 Teppo Indrek Tempomeister 3:15 3:14:30 3:14:27 103
177   278 Rantala Jyrki Liikuttavat 3:14:32 3:14:24 16
178   413 Muromägi Avo LLA 3:14:37 3:14:26 104
179   662 Fatkulin Renat 3:14:38 3:14:30 105
180   1807 Pisa Leho 3:14:40 3:13:56 106
181   2218 Oprits Ruslan 42195.kiev.ua 3:14:48 3:13:59 107
182   1646 Hunt Tauri Sidepataljoni SK 3:14:48 3:14:06 108
183   96 Nisloni Rainer 3:14:54 3:14:54 109
184   232 Kübarsepp Karmo Eesti Energia Spordiklubi 3:14:56 3:14:53 110
185   84 Mooses Joosep 3:14:57 3:14:57 111
186   86 Atonen Marek VAK Staier 3:15:04 3:15:02 112
187   274 Põlgast Priit 3:15:10 3:15:05 113
188   2244 Savenkov Mikhail 3:15:14 3:14:46 114
189   188 Sillamaa Kaspar 3:15:14 3:15:08 115
190   179 Chittka Joerg 3:15:20 3:15:14 10
191   225 Aave Marius RTA Tarbatu 3:15:25 3:15:21 116
192   875 Bõtškov Mihhail InFocus 3:15:29 3:15:17 117
193   186 Simovaara Jyrki 3:15:29 3:15:25 17
194   9 Košelev Deniss SK Jooksupartner 3:15:29 3:15:27 118
195   1872 Grigorev Aleksei I'mRoller 3:15:47 3:15:25 119
196   447 Rink Meelis SK Viljandi Jokker 3:15:48 3:15:41 120
197   1791 Lepik Sander 3:16:10 3:15:46 121
198   870 Blumfeldt Martin-Erik 3:16:21 3:16:17 122
199   241 Kaljumäe Karl 3:16:23 3:16:20 123
200   1295 Varenkamp Lars Lübbecker Berglöwen 3:16:29 3:16:27 29
201   752 Hellerma Andres Liina Tšernovi 3:16:33 3:16:31 124
202   199 Svensson Jonas P18 ik 3:16:37 3:16:33 11
203   327 Palling Kalle 3:16:39 3:16:37 125
204   1473 Kaarna Jussi 3:16:41 3:16:13 30
205   2176 Liukka Mikko 3:16:50 3:16:11 126
206   1899 Vann Alvin Elioni Spordiklubi 3:16:51 3:16:25 127
207   277 Bessonov Sergei 3:16:52 3:16:47 128
208   60 Tanner Lauri Läänemaa kjk 3:17:07 3:17:07 129
209   465 Sõber Elion 3:17:09 3:16:59 130
210   1559 Hartman Mikko Sporttiklubi 3:17:15 3:16:29 131
211   1847 Kaarli Kaido 3:17:21 3:17:01 132
212   293 Pithouse Ian East End Road Runners 3:17:27 3:17:21 133
213 10 59 Tamm Maris TÜASK 3:17:47 3:17:44 8
214   191 Heljasvuo Kimmo Keurusselän maratoonarit 3:17:49 3:17:43 134
215   1864 Jürgenson Aivar 3:17:53 3:17:29 18
216   1832 Pitkäkoski Jari 3:17:54 3:17:49 135
217   344 Tuul Harry 3:17:57 3:17:49 136
218   95 Kaletin Anton 3:18:07 3:18:05 137
219   2131 Ottas Olavi 3:18:08 3:17:38 138
220   390 Hokka Joonas 3:18:20 3:18:10 139
221   220 Vahtramäe Ivo 3:18:21 3:18:16 19
222   704 Rolavs Kaspars 3:18:27 3:18:12 140
223   290 Maiste Margus 3:18:29 3:18:24 141
224   130 Kallas Priit FB Jooksmine 3:18:32 3:18:28 31
225   2129 Bauvald Indrek OlyBet 3:18:46 3:18:00 142
226   175 Vaiksaar Tõnis SK100 3:18:55 3:18:50 143
227 11 273 Albert Kai 21CC Triatloniklubi 3:18:57 3:18:53 9
228 12 58 Lepik Kaia Täppsportlased 3:18:59 3:18:55 10
229   237 Kaldvee Andres 3:19:08 3:19:04 144
230   333 Krass Reimo 3:19:11 3:19:02 145
231   380 Meos Peeter 3:19:12 3:19:04 146
232   617 Väljaots Kain Viru Tull 3:19:24 3:19:11 32
233   1810 Halinen Jani 3:19:25 3:19:18 147
234   356 Pirtnieks Brets 3:19:37 3:19:29 33
235   227 Raap Ilmar 3:19:37 3:19:32 20
236   701 Valk Karl Peeter 3:19:37 3:19:26 10
237   291 Eskla Algo 3:19:39 3:19:36 148
238   228 Leja Andris Ziemelkurzeme OK 3:19:44 3:19:38 34
239 13 287 Randmaa Katri 3:19:47 3:19:42 2
240   479 Martsik Maido SK Viljandi Jokker 3:19:57 3:19:50 149
241   2026 Milva Tarmo 3:20:05 3:19:28 21
242   402 Kirpu Peeter 3:20:19 3:20:12 2
243   1868 Korrol Mati 3:20:22 3:20:17 35
244   375 Salo Markku Tampereen Maratonklubi 3:20:31 3:20:23 36
245   219 Vitsut Madis Viljandi Aerutamisklubi 3:20:35 3:20:32 150
246   859 Leinemann Georgi 3:20:39 3:20:26 151
247   786 Latin Vladimir 3:20:41 3:20:27 152
248   208 Siimsaare Tarmo Seiklusklubi Xdream 3:20:49 3:20:43 153
249   940 Siim Tarvo Jussikese 7 Sõpra 3:20:54 3:20:40 154
250   386 Stolarczyk Radek 3:20:54 3:20:41 155
251   411 Paalanen Anssi 3:20:56 3:20:47 156
252   243 Grauen Peteri 3:20:57 3:20:52 157
253   778 Klisheuski Anatoli KOLOBOK 3:20:57 3:20:46 22
254   240 Eklund Dahlborg Thomas BMF 3:21:00 3:20:53 37
255   417 Ruul Rünno Elioni Spordiklubi 3:21:07 3:20:57 38
256   862 Nuurma Juha 3:21:08 3:20:51 158
257   500 Sepp Aleksandr 3:21:09 3:21:04 159
258   238 Varna Aigars Ziemelkurzeme OK 3:21:13 3:21:07 39
259 14 248 Jõgeva Toomas 3:21:24 3:21:18 2
260   883 Rammul Risto SK Los Toros 3:21:29 3:21:16 160
261   420 Pihlak Sander 3:21:30 3:21:22 161
262   340 Valkonen Henri 3:21:34 3:21:22 162
263   1848 Pukkonen Eduard 3:21:39 3:21:22 12
264   165 Nurk Talis 3:21:44 3:21:41 163
265   198 Tamme Risto 3:21:46 3:21:42 164
266   213 Türkson Arne Suusahullud 3:21:48 3:21:43 23
267   314 Kand Peeter velo clubbers 3:21:51 3:21:44 24
268   2109 Rajaver Mikk 3:21:55 3:21:16 165
269   392 Galkin Vladimir 3:21:56 3:21:50 25
270   391 Kõrran Timmo 3:22:00 3:21:51 166
271 15 383 Juudas Elisabeth 3:22:02 3:21:54 11
272   2101 Soo Kristen 3:22:05 3:21:23 11
273   1806 Heikkinen Tapio 3:22:13 3:21:45 13
274   176 Sooväli Karl 3:22:17 3:22:14 167
275   315 Medijainen Siim 3:22:23 3:22:12 168
276   1820 Volens Urmas 3:22:25 3:21:58 169
277   2248 Kendla Taivo 3:22:30 3:22:20 170
278   749 Mäe Vahur Kahe Silla Klubi 3:22:32 3:22:13 171
279   1860 Käosaar Kalev TriSmile 3:22:33 3:22:26 40
280   302 Errapart Roman 3:22:34 3:22:28 172
281   174 Verbessem Herman Joggingteam Peulis 3:22:38 3:22:35 2
282   415 Vask Veljo OK West 3:22:48 3:22:41 41
283   338 Siim Andres saarde Sk 3:23:01 3:22:54 42
284   740 Marrecau Frederic Antwerp marathon club 3:23:16 3:22:59 173
285 16 732 Rautiainen Merja 3:23:16 3:22:54 3
286   2117 Miller Mait 21CC Triatloniklubi 3:23:20 3:23:13 43
287   200 Vesterlund Jan-Ake P18 ik 3:23:23 3:23:20 14
288   719 Paxton William 3:23:23 3:23:03 174
289   282 Terpiak Andrii 3:23:26 3:23:20 15
290   451 Rondinone Giuseppe ASD MARATHON CLUB GRASSANO 3:23:27 3:23:17 44
291   1992 Antalainen Lauri Trismile 3:23:31 3:23:15 175
292   251 Abner Andre Stamina 3:23:39 3:23:31 45
293   1740 Staveckas Vidas 3:23:45 3:23:23 46
294   205 Sukk Gaspar 3:23:51 3:23:47 176
295   2155 Tinno Margus velo clubbers 3:23:55 3:23:51 47
296   345 Part Holger 3:23:55 3:23:44 177
297   2203 Leibenau Marko SK Metsasõbrad 3:23:59 3:23:53 178
298   432 Jürgenstein Indrek Stamina SK 3:24:00 3:23:53 26
299   1947 Josic Daniel 3:24:18 3:24:11 179
300 17 52 Kurg Eveli SK Maret-Sport 3:24:22 3:24:20 12
301   448 Potenza Angelo Raffaele ASD MARATHON CLUB GRASSANO 3:24:29 3:24:20 27
302   467 Tylli Mikko Miehikkälän Vilkas 3:24:46 3:24:39 180
303   772 Kirss Mairo 3:24:49 3:24:40 181
304   255 Balyabin Dmitry 3:24:51 3:24:46 28
305   484 Saar Jüri 3:24:51 3:24:40 182
306   53 Lokk Sulev Stamina SK 3:25:00 3:24:58 29
307   2236 Shelepen Viaceslav 3:25:01 3:24:17 16
308 18 1065 Nieminen Mari TREMK 3:25:02 3:24:30 13
309   1688 Pachel Marko 3:25:03 3:24:38 48
310   2040 Kuusalu Ivo EUK Sport 3:25:05 3:24:29 183
311   280 Leisalu Tanel 3:25:07 3:25:04 184
312   903 Ala Taimar 3:25:15 3:25:00 185
313   668 Luud Aivar Estonian Ultrarunners Team 3:25:15 3:25:01 49
314   214 Hendrikson Peeter Haanja Rattaklubi 3:25:19 3:25:14 30
315   279 Oranen Peeter Laaneproff team 3:25:20 3:25:15 186
316   210 Kopola Kari 3:25:27 3:25:20 3
317   234 Kikkawa So 3:25:33 3:25:29 187
318   2173 Bõtšuk Vladimir Megacom group/Logmix 3:25:35 3:25:28 17
319 19 272 Sillanurm Ly Täppsportlased MTÜ 3:25:37 3:25:33 4
320   562 Novitski Janar 3:25:55 3:25:45 188
321   215 Leimann Ragnar 3:25:57 3:25:51 189
322   258 Latva Sami 3:26:01 3:25:44 31
323   896 Galyaev Yury IRC 3:26:01 3:25:47 32
324   355 Koskaru Meelis MTA SK 3:26:02 3:25:56 190
325   42 Kaljurand Urmas Stamina SK 3:26:07 3:26:05 18
326   316 Pasanen Lauri 3:26:10 3:26:00 191
327   884 Tops Rainer SK Los Toros 3:26:13 3:26:00 192
328   216 Siimumäe Margo Estonian Ultrarunners Team 3:26:16 3:26:11 33
329   196 Mihkelson Ain 3:26:17 3:26:11 50
330   224 Aittokallio Jukka Tampereen Maratonklubi 3:26:17 3:26:13 3
331   320 Gilbert Daniel 3:26:18 3:26:06 34
332   324 Kääriäinen Timo Kestävyyttä Pintakaasulla 24/7 3:26:19 3:26:10 51
333   844 Somppi Ville Tampereen Maratonklubi 3:26:21 3:26:10 193
334   614 Metze Heiko IK Stern 3:26:30 3:26:19 19
335   406 Turpeinen Sampo Helsinki Triathlon 3:26:39 3:26:29 194
336   2172 Skrjabin Mihhail 3:26:39 3:25:54 195
337   728 Timm Rimo Saaremaa Merispordi Selts 3:26:45 3:26:28 12
338   223 Yury Efremov 3:26:45 3:26:42 4
339   462 Mõttus Eero Täppsportlased 3:26:48 3:26:39 52
340   359 Jõeleht Jaago Hansa SK 3:26:56 3:26:50 53
341   408 Pitkänen Antti 3:26:58 3:26:31 54
342 20 2003 Maslova Tatiana Baltic star 3:26:59 3:26:21 14
343   259 Dubrovski Jan 3:27:01 3:26:55 196
344   98 Laasu Arnold SK Saarde 3:27:06 3:27:03 20
345   1392 Paane Risto 3:27:24 3:27:00 197
346   362 Traks Aivo 3:27:25 3:27:17 55
347   1101 Tali Tõnis 3:27:29 3:26:51 198
348   381 Atkinson Mark MK Lakeside Runners 3:27:31 3:27:22 199
349 21 363 Pilli Moonika 3:27:33 3:27:28 15
350   821 Etverk Erkki SK Metsasõbrad 3:27:33 3:27:29 56
351   289 Fazõlov Timur 3:27:40 3:27:36 200
352   791 Pilbas Kristian Eesti Energia Spordiklubi 3:27:41 3:27:25 201
353 22 424 Lassila Ida-Maaria 3:27:44 3:27:35 16
354   798 Leesmäe Jüri OK West 3:27:49 3:27:34 2
355   364 Vürmer Silver Täppsportlased 3:27:51 3:27:42 202
356   427 Tuuli Tuomas 3:27:53 3:27:41 203
357   499 Pajuste Taavi SK Schnelli 3:28:00 3:27:51 204
358   311 Eller Eik 3:28:01 3:27:54 5
359   2251 Luiks Meelis Elioni Spordiklubi 3:28:02 3:27:52 205
360   1897 Ots Margus 3:28:04 3:27:46 206
361   1276 Vilgo Riivo Raplamaa Tublid Maratoonarid 3:28:05 3:27:40 207
362   1072 Hennilä Jari 3:28:09 3:27:44 35
363   268 Tuuli Tuukka Espoon palolaitoksen urheilijat 3:28:15 3:28:10 208
364   104 Lään Christjan TÄPPSPORTLASED 3:28:28 3:28:27 57
365   303 Nadjd Peyma Kambiz ATL. Presezzo 3:28:36 3:28:28 58
366   1368 Nikolajev Dmitri 3:28:36 3:27:57 36
367   347 Niinemaa Kristjan 3:28:44 3:28:36 59
368   425 Nygren Jerry 3:28:45 3:28:36 60
369 23 312 Carp Marie-Louise Vöra IF 3:28:46 3:28:36 3
370   361 Saidla Siim Suusahullud 3:28:55 3:28:46 209
371 24 773 Lilleoru Merle KW Bruun Baltic 3:28:57 3:28:42 17
372   409 Forsbacka Matias Teerijärvi 3:29:05 3:28:57 210
373   306 Gilden Kristen 3:29:13 3:29:02 211
374   826 Laja Leho SK JOOKSUPARTNER 3:29:14 3:29:03 61
375   1652 Köster Raul MyFitness Viru 3:29:18 3:29:02 62
376   445 Tjuška Viktor 3:29:23 3:29:15 212
377   247 Nirgi Ailar 3:29:24 3:29:19 37
378   2191 Tukiainen Marko 3:29:26 3:28:53 38
379   440 Ervin Alar SK Biathlon 3:29:26 3:29:17 13
380   1550 Karkkimaa Frans 3:29:27 3:29:06 213
381   161 Vauhkonen Sami 3:29:27 3:29:20 39
382   1244 Petrovs Dzintars noskrien.lv 3:29:28 3:29:07 63
383   288 Fernandes Bruno 3:29:28 3:29:25 64
384   349 Mustonen Marek 3:29:32 3:29:22 65
385 25 1692 Luiks Ülle 3:29:38 3:29:28 18
386   252 Soukup Karl 3:29:41 3:29:34 40
387   2229 Isokallio Kari 3:29:42 3:29:00 6
388   654 Koppel Erkki 3:29:42 3:29:28 214
389   1987 Labe Andre 3:29:45 3:29:12 215
390   254 Ruubel Paul SK Keremeister 3:29:47 3:29:44 216
391   857 Tänav Armin Keremeister 3:29:47 3:29:25 217
392   1001 Teder Martin 3:29:51 3:29:31 14
393   187 Veeret Andreas 3:29:52 3:29:48 218
394   2012 Matero Janne 3:29:53 3:29:02 219
395 26 382 Hokkanen Aino Luopioisten maratoonarit 3:29:54 3:29:46 19
396   490 Mustonen Antti 3:29:55 3:29:44 220
397   676 Tameri Tarvi 3:29:58 3:29:47 221
398   2019 Vilen Kasperi 3:29:58 3:29:13 222
399   377 Semi?n Jaroslav BÄžeck? klub Ä?S 3:30:00 3:29:48 66
400   986 Peltola Jukka Tampereen Maratonklubi 3:30:02 3:29:49 223
401 27 502 Laasma Meelika 3:30:04 3:29:56 5
402   890 Nemeth Roland 3:30:09 3:29:57 224
403   1238 Telling Urmas Lahden Ahkera 3:30:16 3:29:35 21
404 28 46 Vulla Ela Rakvere KJK ViKe 3:30:26 3:30:24 20
405   454 Köster Silver 3:30:28 3:30:18 225
406   434 Juns Tanel 3:30:38 3:30:32 226
407   550 Roos Indrek 3:30:46 3:30:33 227
408   319 Saar Laur TC2000 3:30:48 3:30:37 41
409   760 Lehtla Reigo CACE 3:30:50 3:30:37 67
410   1835 Maasik Martin 3:30:52 3:30:24 228
411   698 Kemetter Stephan 3:30:53 3:30:42 22
412   369 Zhuravlev Viacheslav Everest 3:30:54 3:30:44 23
413   301 Kals Jaak Lopetijukud 3:30:56 3:30:47 229
414   239 Kilpinen Ari Kauhajoen Karhu Maraton 3:30:59 3:30:50 7
415   407 Raudna Artur 3:31:01 3:30:46 230
416   357 Tkatšenko Roman 3:31:03 3:30:55 231
417   949 Talviste Raimo 3:31:03 3:30:48 232
418   651 Seppar Elvis 3:31:03 3:30:56 233
419   1760 Heikfolk Johan 3:31:05 3:30:42 24
420   286 Karjus Tanel 3:31:06 3:31:01 234
421 29 494 Jakobson Õnne-Liina 3:31:07 3:30:58 21
422   495 Parts Rauno FB Jooksmine 3:31:09 3:31:02 68
423   350 Reitav Kristo 3:31:11 3:31:03 235
424   1699 Vallimäe Sven 3:31:18 3:30:52 69
425   620 Uustalo Hektor 3:31:18 3:31:05 236
426   647 Grotus Aleksandrs 3:31:21 3:31:06 70
427   173 Meier Ergo 3:31:22 3:31:16 71
428   2064 Sonnberg Sander 3:31:26 3:30:41 15
429   412 Kulmala Tommi Mattorauma maraton team 3:31:27 3:31:17 237
430   2028 Sarkeala Janne 3:31:29 3:30:47 25
431   1616 Kuuskmann Tõnis 3:31:30 3:30:57 238
432 30 2110 Tross Sandra 3:31:32 3:31:25 22
433   1524 Liivandi Eero 3:31:36 3:31:30 239
434   267 Hendrikson Tõnu Elioni Spordiklubi 3:31:39 3:31:35 72
435   853 Treilmann Jaanus 3:31:40 3:31:31 73
436 31 1009 Jaaska Britt SK Serviti 3:31:42 3:31:22 23
437 32 51 Järve Marina Sparta 3:31:46 3:31:43 4
438 33 401 Rammul Brit 3:32:00 3:31:50 24
439   1836 Mägi Enn Stamina 3:32:02 3:31:34 8
440   594 Võip Raivo 3:32:02 3:31:51 42
441   616 Maasikrand Mart EUT 3:32:09 3:31:57 74
442   551 Laugal Emil ITALINOX 3:32:14 3:31:56 240
443   667 Tapio Salonen 3:32:16 3:32:05 43
444   1971 Laast Andres sportkeskus.ee 3:32:30 3:32:10 26
445   632 Viirg Risto Sparta 3:32:31 3:32:20 75
446   378 Bondarenko Konstantin 3:32:34 3:32:25 241
447   371 Heremans Marc Joggingclub Peulis 3:32:35 3:32:26 27
448   568 Kalda Krister 3:32:44 3:32:39 76
449   735 Priks Hanno VAK Staier 3:32:47 3:32:39 28
450   2006 Klaas Kunnar 3:32:51 3:32:15 242
451   459 Gross Toomas 3:32:54 3:32:47 77
452   147 Mazko Viktor 3:32:56 3:32:52 78
453   2042 Vait Indrek 3:32:58 3:32:18 243
454   284 Zvorovski Henn 3:33:02 3:32:57 44
455 34 854 Kuusk Klarika 3:33:24 3:33:11 6
456   622 Latokylä Joni 3:33:35 3:33:13 244
457   270 Vassiljev Dmitri 3:33:47 3:33:40 245
458   192 Aleksandr Golev Baltika 3:34:04 3:33:59 246
459   260 Saar Heigo 3:34:05 3:34:00 45
460   563 Angelstok Aivar 3:34:23 3:34:04 46
461   436 Kladis Constantin Lo R? Brazil 3:34:25 3:34:12 9
462   452 Kaus Tanel 3:34:36 3:34:27 247
463   41 Toom Toomas Stamina SK 3:34:57 3:34:54 29
464   1780 Johanson Jaanus 3:35:01 3:34:33 79
465   102 Mikhail Vasilenko Baltika 3:35:01 3:34:55 47
466   794 Larsson Hakan 3:35:02 3:34:47 48
467   1729 Mandell Jonny NetTicket.fi 3:35:10 3:34:29 49
468   1254 Lysehoej Christian 3:35:15 3:34:56 80
469   2017 Roomet Heiki 3:35:17 3:34:34 248
470   246 Lyzhin Sergey BIM 3:35:19 3:35:17 10
471 35 308 Juhola Johanna Tampereen maratonklubi 3:35:24 3:35:16 25
472   927 Holma Kalle 3:35:37 3:35:24 249
473   1919 Lõkk Raivo 3:35:39 3:35:30 250
474   561 Pärtelpoeg Ingmar 3:35:43 3:35:28 81
475 36 403 Naumanen Paivi Tampereen Maratonklubi 3:35:46 3:35:36 1
476   518 Heinvee Martin 3:35:47 3:35:26 251
477   677 Bušin Peep 3:35:50 3:35:29 252
478   790 Tereštšenkov Aleksei U-Club 3:36:03 3:35:50 30
479   1789 Kuldjärv Rain 3:36:13 3:35:49 253
480   438 Treier Tarvo 3:36:15 3:36:08 254
481   2232 Evgeny Eliseev 3:36:17 3:35:39 255
482 37 593 Iso-Järvenpää Heli Tampereen Maratonklubi 3:36:19 3:36:00 5
483   530 Schone Kristian TÜASK / harrastajad 3:36:31 3:36:13 256
484 38 691 Jaama Maris 3:36:31 3:36:16 6
485   737 Teppo Peep 3:36:48 3:36:35 257
486   328 Mägi Indrek 3:36:51 3:36:44 258
487   557 Kukk Siim 3:37:00 3:36:47 259
488   1950 Rauhiainen Artur 3:37:05 3:36:57 260
489   549 Poom Joonas 3:37:09 3:36:50 261
490   621 Siller Marko SK Schnelli 3:37:19 3:36:58 262
491   342 Lass Risto SK Saarde 3:37:19 3:37:11 82
492   587 Krilovs Ringo Voka 3:37:21 3:37:04 263
493   801 Loonurme Märt 3:37:28 3:37:16 264
494   414 Alver Ott 3:37:28 3:37:20 265
495   885 Tops Assar SK Los Toros 3:37:32 3:37:18 83
496 39 603 Craig Siobhan 3:37:33 3:37:16 26
497   266 Puolitaival Mikko Rauman palomiesurheilijat 3:37:39 3:37:26 266
498   748 Basharin Aleksandr 3:37:45 3:37:29 267
499   470 Kozmov Aleksandr 3:37:47 3:37:39 3
500   1942 Kangro Oliver 3:38:04 3:38:00 268
‹‹ Tagasi
 
Kommenteerimine ajutisel peatatud!
Sorteeri vanemast uuemaks:
aivo, 2aivole@gmail.com, 01.09.2014 16:53
Ära anda mõistliku hinnaga stardikoht täispikal distantsil.
Doris, dora_dorka@hotmail.com, 01.09.2014 15:20
Müün 2 hea stardinumbriga piletit ümberregistreerimiseks SEB Tallinna Maratoni 10 km ajavõtuga jooksule. Huvi korral kirjuta e-mailile dora_dorka@hotmail.com.
Olga, , 03.05.2014 21:37
Müün Tallinna maratoni kinkekaardi-saab valida ükskõik millise distantsi! hinnaks 20 EUR, hetkel maksab osalemine maratonis juba 35 EUR! Kinkekaart on ainult 1. ao2002@mail.ru


Kõige populaarsemad
Tallinna Maraton 14_r_1
Kasutajanimi:
Parool:
 
*Uus kasutaja *Unustasid parooli?
SPORTINFO
KORRALDAJATELE
KIRJUTA MEILE
KONTAKT
KASUTUSTINGIMUSED
KOMMENTEERIMINE